createdAt,value
2018-11-21T00:03:17.325Z,96.19
2018-11-21T00:08:13.031Z,94.46
2018-11-21T00:13:11.024Z,94.73
2018-11-21T00:18:32.613Z,94.20
2018-11-21T00:23:33.125Z,94.47
2018-11-21T00:28:27.744Z,93.81
2018-11-21T00:33:35.083Z,94.58
2018-11-21T00:38:31.064Z,94.60
2018-11-21T00:43:25.786Z,94.59
2018-11-21T00:48:21.784Z,94.81
2018-11-21T00:53:16.425Z,94.94
2018-11-21T00:58:14.666Z,94.84
2018-11-21T01:03:09.878Z,96.32
2018-11-21T01:08:08.381Z,96.71
2018-11-21T01:13:03.443Z,95.67
2018-11-21T01:17:58.148Z,95.26
2018-11-21T01:22:52.698Z,95.67
2018-11-21T01:27:47.466Z,96.02
2018-11-21T01:32:42.326Z,96.33
2018-11-21T01:37:36.978Z,95.93
2018-11-21T01:42:31.622Z,96.14
2018-11-21T01:47:26.539Z,95.57
2018-11-21T01:52:21.129Z,95.62
2018-11-21T01:57:15.893Z,95.38
2018-11-21T02:02:10.580Z,95.20
2018-11-21T02:07:05.725Z,96.53
2018-11-21T02:12:00.429Z,96.42
2018-11-21T02:16:55.054Z,97.26
2018-11-21T02:21:49.734Z,96.73
2018-11-21T02:26:45.145Z,96.69
2018-11-21T02:31:40.370Z,97.19
2018-11-21T02:36:35.112Z,98.84
2018-11-21T02:41:29.787Z,99.98
2018-11-21T02:46:25.348Z,99.83
2018-11-21T02:51:19.917Z,99.84
2018-11-21T02:56:14.598Z,100.00
2018-11-21T03:01:14.602Z,100.00
2018-11-21T03:06:09.406Z,100.00
2018-11-21T03:11:11.029Z,100.00
2018-11-21T03:16:06.933Z,100.00
2018-11-21T03:21:04.257Z,99.92
2018-11-21T03:25:58.913Z,100.00
2018-11-21T03:30:55.931Z,100.00
2018-11-21T03:35:50.641Z,100.00
2018-11-21T03:40:46.375Z,100.00
2018-11-21T03:45:41.219Z,100.00
2018-11-21T03:50:36.705Z,100.00
2018-11-21T03:55:33.381Z,100.00
2018-11-21T04:00:28.938Z,100.00
2018-11-21T04:05:23.578Z,100.00
2018-11-21T04:10:18.285Z,100.00
2018-11-21T04:15:14.263Z,100.00
2018-11-21T04:20:09.774Z,100.00
2018-11-21T04:25:05.050Z,100.00
2018-11-21T04:29:59.640Z,100.00
2018-11-21T04:34:54.471Z,100.00
2018-11-21T04:40:35.025Z,100.00
2018-11-21T04:51:33.689Z,100.00
2018-11-21T05:08:33.404Z,100.00
2018-11-21T05:13:33.918Z,100.00
2018-11-21T05:24:32.611Z,100.00
2018-11-21T05:34:48.738Z,100.00
2018-11-21T05:40:32.302Z,100.00
2018-11-21T05:51:34.223Z,100.00
2018-11-21T06:02:33.167Z,100.00
2018-11-21T06:07:34.161Z,100.00
2018-11-21T06:12:34.773Z,100.00
2018-11-21T06:23:33.121Z,100.00
2018-11-21T06:34:35.035Z,100.00
2018-11-21T06:50:46.327Z,100.00
2018-11-21T07:01:34.520Z,100.00
2018-11-21T07:06:33.899Z,100.00
2018-11-21T07:11:35.456Z,100.00
2018-11-21T07:17:30.553Z,100.00
2018-11-21T07:23:31.684Z,100.00
2018-11-21T07:28:38.946Z,100.00
2018-11-21T07:33:35.892Z,100.00
2018-11-21T07:38:35.023Z,100.00
2018-11-21T07:43:34.713Z,100.00
2018-11-21T07:48:34.503Z,100.00
2018-11-21T07:53:34.004Z,100.00
2018-11-21T07:58:32.173Z,100.00
2018-11-21T08:03:52.490Z,99.36
2018-11-21T08:09:13.422Z,98.55
2018-11-21T08:14:23.353Z,98.16
2018-11-21T08:19:37.276Z,99.83
2018-11-21T08:24:51.732Z,100.00
2018-11-21T08:29:46.394Z,98.74
2018-11-21T08:34:41.089Z,98.09
2018-11-21T08:39:36.450Z,95.97
2018-11-21T08:44:30.839Z,97.04
2018-11-21T08:49:25.505Z,97.49
2018-11-21T08:54:20.265Z,95.89
2018-11-21T08:59:14.889Z,96.25
2018-11-21T09:04:09.693Z,96.53
2018-11-21T09:09:06.410Z,94.16
2018-11-21T09:14:01.466Z,94.30
2018-11-21T09:18:56.302Z,95.33
2018-11-21T09:23:51.036Z,94.69
2018-11-21T09:28:45.826Z,95.41
2018-11-21T09:33:40.576Z,94.36
2018-11-21T09:38:36.218Z,94.55
2018-11-21T09:43:31.033Z,93.68
2018-11-21T16:45:24.791Z,94.03
2018-11-21T16:50:20.250Z,93.23
2018-11-21T16:55:17.269Z,92.46
2018-11-21T17:00:15.812Z,91.25
2018-11-21T17:05:12.851Z,91.19
2018-11-21T17:10:11.460Z,90.44
2018-11-21T17:15:09.039Z,91.62
2018-11-21T17:20:03.795Z,92.00
2018-11-21T17:24:58.508Z,91.31
2018-11-21T17:30:44.835Z,92.12
2018-11-21T17:35:47.085Z,91.10
2018-11-21T17:40:42.511Z,91.27
2018-11-21T17:45:37.145Z,91.32
2018-11-21T17:50:31.850Z,91.37
2018-11-21T17:55:28.122Z,91.94
2018-11-21T18:00:35.277Z,91.68
2018-11-21T18:05:31.977Z,92.71
2018-11-21T18:10:28.588Z,92.63
2018-11-21T18:15:23.759Z,91.70
2018-11-21T18:20:18.962Z,91.08
2018-11-21T18:25:16.301Z,90.69
2018-11-21T18:30:13.977Z,90.86
2018-11-21T18:35:26.457Z,91.72
2018-11-21T18:40:40.047Z,92.08
2018-11-21T18:46:00.256Z,90.86
2018-11-21T18:50:55.160Z,91.47
2018-11-21T18:56:25.874Z,91.67
2018-11-21T19:01:20.599Z,92.25
2018-11-21T19:06:15.280Z,90.79
2018-11-21T19:11:10.111Z,92.00
2018-11-21T19:16:04.813Z,92.12
2018-11-21T19:20:59.585Z,92.41
2018-11-21T19:25:54.306Z,91.55
2018-11-21T19:30:49.011Z,91.95
2018-11-21T19:35:43.751Z,91.67
2018-11-21T19:40:38.488Z,91.72
2018-11-21T19:45:33.238Z,92.48
2018-11-21T19:50:28.065Z,92.10
2018-11-21T19:55:24.831Z,91.95
2018-11-21T20:00:24.472Z,92.24
2018-11-21T20:05:19.268Z,92.07
2018-11-21T20:10:14.928Z,92.00
2018-11-21T20:15:19.889Z,91.88
2018-11-21T20:20:24.356Z,92.23
2018-11-21T20:25:23.349Z,91.84
2018-11-21T20:30:30.077Z,91.77
2018-11-21T20:35:24.827Z,91.90
2018-11-21T20:40:24.222Z,91.75
2018-11-21T20:45:23.497Z,91.65
2018-11-21T20:50:18.324Z,91.11
2018-11-21T20:55:13.813Z,91.11
2018-11-21T21:00:12.374Z,91.68
2018-11-21T21:05:09.241Z,91.56
2018-11-21T21:10:03.991Z,92.00
2018-11-21T21:15:02.239Z,91.87
2018-11-21T21:19:57.679Z,91.45
2018-11-21T21:24:52.591Z,91.60
2018-11-21T21:29:47.502Z,92.18
2018-11-21T21:34:42.595Z,92.44
2018-11-21T21:39:37.403Z,91.89
2018-11-21T21:44:32.305Z,92.77
2018-11-21T21:49:27.059Z,92.95
2018-11-21T21:54:21.815Z,93.00
2018-11-21T21:59:16.542Z,93.38
2018-11-21T22:04:12.414Z,94.12
2018-11-21T22:09:11.933Z,93.28
2018-11-21T22:14:06.712Z,93.28
2018-11-21T22:19:01.472Z,94.03
2018-11-21T22:23:56.326Z,94.80
2018-11-21T22:28:51.076Z,94.65
2018-11-21T22:33:45.821Z,95.05
2018-11-21T22:38:40.989Z,94.88
2018-11-21T22:43:35.722Z,95.01
2018-11-21T22:48:30.494Z,94.83
2018-11-21T22:53:25.371Z,95.60
2018-11-21T22:58:20.021Z,95.13
2018-11-21T23:03:15.812Z,95.17
2018-11-21T23:08:10.597Z,94.58
2018-11-21T23:13:05.414Z,94.88
2018-11-21T23:18:00.219Z,95.39
2018-11-21T23:22:55.020Z,95.99
2018-11-21T23:27:50.874Z,96.09
2018-11-21T23:32:46.423Z,95.67
2018-11-21T23:37:41.177Z,96.91
2018-11-21T23:42:35.880Z,97.50
2018-11-21T23:47:30.800Z,98.39
2018-11-21T23:52:25.466Z,99.17
2018-11-21T23:57:24.740Z,99.35
